Time;durP1;ratioP1;P1;durP2;ratioP2;P2;SDS_P1;SDS_P2;PMS_P1;PMS_P2;Temp;Humidity;BMP_temperature;BMP_pressure;BME280_temperature;BME280_humidity;BME280_pressure;Samples;Min_cycle;Max_cycle;Signal;HPM_P1;HPM_P2
2023/06/04 00:00:44;;;;;;;5.20;4.70;;;;;;;;;;4973395;28;20199;-75
2023/06/04 00:03:09;;;;;;;5.77;4.67;;;;;;;;;;4991488;28;20224;-75
2023/06/04 00:05:35;;;;;;;4.50;4.10;;;;;;;;;;4970086;28;20188;-75
2023/06/04 00:08:00;;;;;;;6.20;4.60;;;;;;;;;;4972236;28;20216;-74
2023/06/04 00:10:25;;;;;;;6.50;5.53;;;;;;;;;;4974581;28;20192;-75
2023/06/04 00:12:50;;;;;;;6.10;4.83;;;;;;;;;;4983497;28;20191;-74
2023/06/04 00:15:16;;;;;;;7.77;4.77;;;;;;;;;;4968427;28;20216;-74
2023/06/04 00:17:41;;;;;;;5.63;4.70;;;;;;;;;;4965714;28;20230;-75
2023/06/04 00:20:07;;;;;;;6.87;5.20;;;;;;;;;;4963347;28;20220;-75
2023/06/04 00:22:32;;;;;;;4.33;3.80;;;;;;;;;;4963255;28;20179;-77
2023/06/04 00:24:57;;;;;;;8.83;4.83;;;;;;;;;;4970427;28;20180;-75
2023/06/04 00:27:22;;;;;;;6.77;4.67;;;;;;;;;;4971201;28;20325;-75
2023/06/04 00:29:47;;;;;;;5.63;4.40;;;;;;;;;;4987376;28;20274;-75
2023/06/04 00:32:13;;;;;;;6.27;4.53;;;;;;;;;;4970655;28;20183;-75
2023/06/04 00:34:38;;;;;;;5.93;5.13;;;;;;;;;;4968326;28;20208;-75
2023/06/04 00:37:03;;;;;;;5.20;4.30;;;;;;;;;;4966946;28;20171;-75
2023/06/04 00:39:29;;;;;;;5.00;4.50;;;;;;;;;;4971357;28;20199;-75
2023/06/04 00:41:54;;;;;;;5.50;5.00;;;;;;;;;;4972883;28;20186;-75
2023/06/04 00:44:21;;;;;;;7.53;5.03;;;;;;;;;;4982549;28;20188;-75
2023/06/04 00:46:47;;;;;;;5.67;4.93;;;;;;;;;;4966674;28;20196;-75
2023/06/04 00:49:12;;;;;;;5.30;4.80;;;;;;;;;;4977377;28;20190;-75
2023/06/04 00:51:38;;;;;;;5.23;4.70;;;;;;;;;;4966846;28;20199;-75
2023/06/04 00:54:08;;;;;;;5.43;4.77;;;;;;;;;;4966773;28;20204;-75
2023/06/04 00:56:35;;;;;;;5.03;4.20;;;;;;;;;;4971530;28;20212;-75
2023/06/04 00:59:00;;;;;;;6.13;4.50;;;;;;;;;;4969913;28;20188;-75
2023/06/04 01:01:33;;;;;;;6.57;4.80;;;;;;;;;;4965658;28;20194;-75
2023/06/04 01:03:59;;;;;;;5.67;4.87;;;;;;;;;;4984215;28;20329;-75
2023/06/04 01:06:35;;;;;;;6.07;5.03;;;;;;;;;;4970349;28;20261;-75
2023/06/04 01:09:00;;;;;;;6.80;4.97;;;;;;;;;;4965186;28;20275;-75
2023/06/04 01:11:33;;;;;;;7.40;5.77;;;;;;;;;;4967806;28;20180;-75
2023/06/04 01:13:58;;;;;;;5.07;4.60;;;;;;;;;;4974729;28;20233;-75
2023/06/04 01:16:23;;;;;;;5.57;4.90;;;;;;;;;;4970021;28;20179;-75
2023/06/04 01:18:51;;;;;;;6.30;4.80;;;;;;;;;;4969130;28;20179;-75
2023/06/04 01:21:18;;;;;;;6.33;4.73;;;;;;;;;;4982490;28;20183;-75
2023/06/04 01:23:58;;;;;;;6.30;5.07;;;;;;;;;;4985273;28;20178;-75
2023/06/04 01:26:24;;;;;;;7.03;5.40;;;;;;;;;;4961879;28;20256;-75
2023/06/04 01:28:50;;;;;;;6.00;5.20;;;;;;;;;;4972115;28;20253;-75
2023/06/04 01:31:16;;;;;;;5.03;4.53;;;;;;;;;;4969891;28;20187;-75
2023/06/04 01:33:41;;;;;;;5.80;5.10;;;;;;;;;;4968045;28;20195;-75
2023/06/04 01:36:10;;;;;;;6.13;5.23;;;;;;;;;;4972117;28;20221;-75
2023/06/04 01:38:35;;;;;;;7.50;4.80;;;;;;;;;;4976484;28;20170;-75
2023/06/04 01:41:01;;;;;;;5.10;4.30;;;;;;;;;;4972380;28;20178;-75
2023/06/04 01:43:27;;;;;;;5.67;4.63;;;;;;;;;;4968189;28;20261;-75
2023/06/04 01:45:54;;;;;;;4.57;4.17;;;;;;;;;;4972166;28;20246;-75
2023/06/04 01:48:19;;;;;;;5.13;4.43;;;;;;;;;;4980532;28;20173;-75
2023/06/04 01:50:44;;;;;;;5.63;4.40;;;;;;;;;;4973633;28;20178;-75
2023/06/04 01:53:09;;;;;;;5.97;5.33;;;;;;;;;;4970300;28;20180;-75
2023/06/04 01:55:35;;;;;;;5.30;4.70;;;;;;;;;;4973291;28;20220;-75
2023/06/04 01:58:00;;;;;;;4.40;4.00;;;;;;;;;;4974655;28;20199;-75
2023/06/04 02:00:25;;;;;;;7.57;4.83;;;;;;;;;;4976594;28;20188;-75
2023/06/04 02:02:51;;;;;;;6.27;4.83;;;;;;;;;;4971868;28;20240;-75
2023/06/04 02:05:17;;;;;;;5.97;4.33;;;;;;;;;;4979117;28;20273;-75
2023/06/04 02:07:44;;;;;;;4.97;4.57;;;;;;;;;;4969583;28;20198;-75
2023/06/04 02:10:10;;;;;;;6.60;4.43;;;;;;;;;;4976651;28;20188;-75
2023/06/04 02:12:36;;;;;;;11.37;5.10;;;;;;;;;;4975954;28;20174;-75
2023/06/04 02:15:01;;;;;;;5.20;4.70;;;;;;;;;;4974971;28;20213;-75
2023/06/04 02:17:26;;;;;;;4.33;3.90;;;;;;;;;;4981717;28;20203;-75
2023/06/04 02:19:52;;;;;;;5.87;4.87;;;;;;;;;;4973600;28;20185;-75
2023/06/04 02:22:18;;;;;;;5.17;4.47;;;;;;;;;;4973103;28;20208;-75
2023/06/04 02:24:43;;;;;;;5.73;4.27;;;;;;;;;;4976722;28;20188;-75
2023/06/04 02:27:09;;;;;;;5.60;4.30;;;;;;;;;;4973860;28;20186;-75
2023/06/04 02:29:35;;;;;;;6.70;4.63;;;;;;;;;;4969679;28;20189;-75
2023/06/04 02:32:00;;;;;;;4.30;3.90;;;;;;;;;;4973068;28;20232;-75
2023/06/04 02:34:26;;;;;;;4.70;4.20;;;;;;;;;;4976564;28;20201;-75
2023/06/04 02:36:51;;;;;;;6.03;4.43;;;;;;;;;;4967735;28;20181;-75
2023/06/04 02:39:17;;;;;;;4.03;3.63;;;;;;;;;;4973276;28;20225;-75
2023/06/04 02:41:42;;;;;;;5.03;4.20;;;;;;;;;;4968800;28;20187;-75
2023/06/04 02:44:08;;;;;;;7.93;4.07;;;;;;;;;;4976993;28;20281;-75
2023/06/04 02:46:33;;;;;;;4.80;4.40;;;;;;;;;;4965704;28;20192;-75
2023/06/04 02:48:58;;;;;;;7.53;4.53;;;;;;;;;;4973000;28;20230;-75
2023/06/04 02:51:24;;;;;;;5.03;4.10;;;;;;;;;;4983298;28;20192;-75
2023/06/04 02:53:49;;;;;;;5.17;4.50;;;;;;;;;;4968137;28;20347;-75
2023/06/04 02:56:15;;;;;;;6.77;4.87;;;;;;;;;;4975147;28;20251;-75
2023/06/04 02:58:49;;;;;;;6.20;4.50;;;;;;;;;;4966962;28;20181;-75
2023/06/04 03:01:17;;;;;;;5.70;4.43;;;;;;;;;;4967990;28;20166;-75
2023/06/04 03:03:44;;;;;;;5.43;4.60;;;;;;;;;;4966285;28;20228;-75
2023/06/04 03:06:10;;;;;;;5.30;3.93;;;;;;;;;;4972481;28;20178;-75
2023/06/04 03:08:36;;;;;;;4.73;4.33;;;;;;;;;;4967245;28;20184;-75
2023/06/04 03:11:01;;;;;;;5.20;4.20;;;;;;;;;;4976204;28;20189;-75
2023/06/04 03:13:26;;;;;;;4.90;4.40;;;;;;;;;;4985863;28;20188;-75
2023/06/04 03:15:51;;;;;;;4.83;4.17;;;;;;;;;;4971101;28;20217;-75
2023/06/04 03:18:17;;;;;;;5.00;4.50;;;;;;;;;;4974717;28;20267;-75
2023/06/04 03:20:42;;;;;;;5.83;3.90;;;;;;;;;;4994456;28;20182;-75
2023/06/04 03:23:07;;;;;;;5.40;4.07;;;;;;;;;;4984071;28;20184;-75
2023/06/04 03:25:32;;;;;;;4.83;3.90;;;;;;;;;;4975771;28;20180;-75
2023/06/04 03:27:58;;;;;;;6.20;5.40;;;;;;;;;;4967468;28;20214;-75
2023/06/04 03:30:23;;;;;;;5.70;4.27;;;;;;;;;;4968848;28;20207;-75
2023/06/04 03:32:48;;;;;;;5.27;4.33;;;;;;;;;;4968311;28;20272;-75
2023/06/04 03:35:13;;;;;;;5.17;4.13;;;;;;;;;;4969337;28;20200;-75
2023/06/04 03:37:38;;;;;;;4.53;3.70;;;;;;;;;;4971289;28;20220;-75
2023/06/04 03:40:06;;;;;;;5.13;3.73;;;;;;;;;;4981365;28;20173;-75
2023/06/04 03:42:31;;;;;;;5.40;3.67;;;;;;;;;;4983800;28;20213;-75
2023/06/04 03:44:57;;;;;;;4.37;3.43;;;;;;;;;;4966937;28;20189;-75
2023/06/04 03:47:23;;;;;;;5.60;3.60;;;;;;;;;;4971668;28;20180;-75
2023/06/04 03:49:48;;;;;;;7.47;4.03;;;;;;;;;;4966728;28;20191;-75
2023/06/04 03:52:13;;;;;;;5.73;4.20;;;;;;;;;;4970908;28;20189;-75
2023/06/04 03:54:38;;;;;;;5.60;3.70;;;;;;;;;;4967084;28;20220;-75
2023/06/04 03:57:04;;;;;;;5.73;4.40;;;;;;;;;;4967206;28;20228;-75
2023/06/04 03:59:29;;;;;;;7.50;4.23;;;;;;;;;;4967261;28;20202;-75
2023/06/04 04:01:54;;;;;;;4.60;3.70;;;;;;;;;;4969143;28;20283;-75
2023/06/04 04:04:20;;;;;;;4.00;3.60;;;;;;;;;;4972471;28;20319;-75
2023/06/04 04:06:45;;;;;;;4.53;3.90;;;;;;;;;;4969236;28;20181;-75
2023/06/04 04:09:10;;;;;;;5.53;4.20;;;;;;;;;;4975628;28;20203;-75
2023/06/04 04:11:35;;;;;;;5.97;3.43;;;;;;;;;;4965190;28;20183;-75
2023/06/04 04:14:00;;;;;;;5.30;3.93;;;;;;;;;;4969679;28;20261;-75
2023/06/04 04:16:27;;;;;;;4.47;3.50;;;;;;;;;;4995091;28;20190;-75
2023/06/04 04:18:52;;;;;;;5.10;3.23;;;;;;;;;;4992981;28;20184;-75
2023/06/04 04:21:17;;;;;;;5.23;3.20;;;;;;;;;;4972407;28;20184;-75
2023/06/04 04:23:44;;;;;;;4.33;3.30;;;;;;;;;;4979176;28;20197;-75
2023/06/04 04:26:10;;;;;;;4.17;3.13;;;;;;;;;;4976901;28;20186;-75
2023/06/04 04:28:35;;;;;;;3.40;3.10;;;;;;;;;;4975006;28;20181;-75
2023/06/04 04:31:02;;;;;;;3.57;3.03;;;;;;;;;;4978262;28;20276;-75
2023/06/04 04:33:32;;;;;;;3.70;3.40;;;;;;;;;;4985733;28;20202;-75
2023/06/04 04:35:59;;;;;;;3.87;3.23;;;;;;;;;;4990001;28;20189;-75
2023/06/04 04:38:24;;;;;;;4.00;3.40;;;;;;;;;;4973424;28;20189;-75
2023/06/04 04:40:51;;;;;;;3.70;3.40;;;;;;;;;;4973754;28;20307;-75
2023/06/04 04:43:17;;;;;;;4.00;3.67;;;;;;;;;;4968384;28;20211;-75
2023/06/04 04:45:42;;;;;;;3.90;3.17;;;;;;;;;;4974667;28;20232;-75
2023/06/04 04:48:07;;;;;;;5.20;3.30;;;;;;;;;;4987254;28;20196;-75
2023/06/04 04:50:32;;;;;;;4.43;3.10;;;;;;;;;;4977096;28;20221;-75
2023/06/04 04:52:58;;;;;;;3.70;3.30;;;;;;;;;;4967522;28;20253;-75
2023/06/04 04:55:23;;;;;;;3.23;2.90;;;;;;;;;;4984033;28;20289;-75
2023/06/04 04:57:48;;;;;;;4.13;3.53;;;;;;;;;;4968455;28;20227;-75
2023/06/04 05:00:14;;;;;;;3.83;3.20;;;;;;;;;;4976524;28;20252;-75
2023/06/04 05:02:40;;;;;;;5.13;3.10;;;;;;;;;;4987354;28;20188;-75
2023/06/04 05:05:05;;;;;;;4.57;3.10;;;;;;;;;;4969285;28;20249;-75
2023/06/04 05:07:30;;;;;;;3.30;2.97;;;;;;;;;;4973570;28;20194;-75
2023/06/04 05:09:56;;;;;;;4.07;3.10;;;;;;;;;;4976655;28;20181;-75
2023/06/04 05:12:25;;;;;;;3.27;2.87;;;;;;;;;;4990352;28;20183;-75
2023/06/04 05:14:50;;;;;;;4.07;3.03;;;;;;;;;;4972771;28;20212;-75
2023/06/04 05:17:16;;;;;;;6.90;4.10;;;;;;;;;;4991641;28;20192;-75
2023/06/04 05:19:42;;;;;;;5.80;2.90;;;;;;;;;;5002319;28;20179;-75
2023/06/04 05:22:08;;;;;;;3.80;2.93;;;;;;;;;;4975077;28;20188;-75
2023/06/04 05:24:33;;;;;;;3.47;2.90;;;;;;;;;;4969691;28;20251;-75
2023/06/04 05:26:59;;;;;;;3.80;3.13;;;;;;;;;;4971965;28;20189;-75
2023/06/04 05:29:24;;;;;;;6.13;2.40;;;;;;;;;;4981675;28;20176;-75
2023/06/04 05:31:49;;;;;;;4.93;2.70;;;;;;;;;;4963383;28;20185;-75
2023/06/04 05:34:16;;;;;;;3.63;2.87;;;;;;;;;;4968240;28;20197;-75
2023/06/04 05:36:42;;;;;;;5.33;2.80;;;;;;;;;;4970322;28;20185;-75
2023/06/04 05:39:07;;;;;;;3.30;2.90;;;;;;;;;;4973308;28;20218;-75
2023/06/04 05:41:32;;;;;;;2.80;2.60;;;;;;;;;;4976876;28;20173;-75
2023/06/04 05:43:57;;;;;;;3.47;3.13;;;;;;;;;;4968179;28;20347;-75
2023/06/04 05:46:23;;;;;;;3.87;2.77;;;;;;;;;;4970660;28;20268;-75
2023/06/04 05:48:48;;;;;;;7.00;2.97;;;;;;;;;;4997258;28;20189;-75
2023/06/04 05:51:13;;;;;;;3.27;2.57;;;;;;;;;;4980620;28;20181;-75
2023/06/04 05:53:39;;;;;;;4.07;2.60;;;;;;;;;;4966977;28;20207;-75
2023/06/04 05:56:04;;;;;;;3.87;2.70;;;;;;;;;;4974211;28;20188;-74
2023/06/04 05:58:29;;;;;;;3.83;2.93;;;;;;;;;;4973603;28;20280;-74
2023/06/04 06:00:54;;;;;;;2.70;2.50;;;;;;;;;;4987718;28;20272;-74
2023/06/04 06:03:20;;;;;;;4.53;3.13;;;;;;;;;;4974273;28;20316;-74
2023/06/04 06:05:45;;;;;;;4.37;3.00;;;;;;;;;;4999565;28;20193;-74
2023/06/04 06:08:10;;;;;;;2.90;2.60;;;;;;;;;;4969791;28;20181;-74
2023/06/04 06:10:36;;;;;;;3.30;2.80;;;;;;;;;;4971774;28;20272;-75
2023/06/04 06:13:01;;;;;;;4.83;2.53;;;;;;;;;;4972041;28;20319;-74
2023/06/04 06:15:26;;;;;;;2.90;2.60;;;;;;;;;;4977151;28;20226;-74
2023/06/04 06:17:52;;;;;;;3.10;2.80;;;;;;;;;;4968954;28;20165;-74
2023/06/04 06:20:18;;;;;;;2.80;2.50;;;;;;;;;;4973763;28;20212;-74
2023/06/04 06:22:43;;;;;;;2.80;2.60;;;;;;;;;;4978039;28;20199;-74
2023/06/04 06:25:08;;;;;;;3.27;2.93;;;;;;;;;;4970418;28;20198;-74
2023/06/04 06:27:34;;;;;;;3.90;2.93;;;;;;;;;;4975832;28;20187;-74
2023/06/04 06:30:00;;;;;;;3.07;2.70;;;;;;;;;;4980004;28;20185;-74
2023/06/04 06:32:25;;;;;;;12.10;3.23;;;;;;;;;;4983612;28;20183;-74
2023/06/04 06:34:50;;;;;;;4.47;2.80;;;;;;;;;;4972901;28;20217;-74
2023/06/04 06:37:15;;;;;;;4.43;2.60;;;;;;;;;;4993531;28;20197;-74
2023/06/04 06:39:40;;;;;;;4.40;2.77;;;;;;;;;;4974660;28;20186;-74
2023/06/04 06:42:06;;;;;;;4.47;2.77;;;;;;;;;;4977647;28;20204;-74
2023/06/04 06:44:31;;;;;;;4.57;2.97;;;;;;;;;;4980943;28;20256;-74
2023/06/04 06:46:56;;;;;;;4.17;2.50;;;;;;;;;;4990067;28;20232;-74
2023/06/04 06:49:21;;;;;;;2.80;2.50;;;;;;;;;;4978850;28;20194;-74
2023/06/04 06:51:46;;;;;;;4.10;3.03;;;;;;;;;;4968537;28;20199;-74
2023/06/04 06:54:14;;;;;;;3.07;2.77;;;;;;;;;;4970610;28;20202;-74
2023/06/04 06:56:39;;;;;;;3.80;2.70;;;;;;;;;;4968247;28;20251;-74
2023/06/04 06:59:05;;;;;;;5.60;3.03;;;;;;;;;;4984966;28;20214;-74
2023/06/04 07:01:32;;;;;;;3.67;3.00;;;;;;;;;;4962566;28;20237;-74
2023/06/04 07:03:57;;;;;;;4.77;3.10;;;;;;;;;;4968044;28;20258;-75
2023/06/04 07:06:22;;;;;;;4.20;2.70;;;;;;;;;;4969308;28;20176;-74
2023/06/04 07:08:48;;;;;;;3.63;2.87;;;;;;;;;;4968889;28;20181;-74
2023/06/04 07:11:13;;;;;;;3.47;2.70;;;;;;;;;;4974934;28;20191;-74
2023/06/04 07:13:39;;;;;;;3.70;2.70;;;;;;;;;;4968358;28;20181;-74
2023/06/04 07:16:04;;;;;;;6.83;3.07;;;;;;;;;;4968009;28;20202;-74
2023/06/04 07:18:29;;;;;;;6.07;3.40;;;;;;;;;;4968271;28;20275;-74
2023/06/04 07:20:54;;;;;;;5.43;3.30;;;;;;;;;;4966624;28;20315;-74
2023/06/04 07:23:20;;;;;;;5.63;3.17;;;;;;;;;;4968087;28;20185;-74
2023/06/04 07:25:45;;;;;;;3.20;2.90;;;;;;;;;;4985675;28;20181;-74
2023/06/04 07:28:11;;;;;;;4.40;3.20;;;;;;;;;;4981722;28;20205;-74
2023/06/04 07:30:37;;;;;;;4.27;3.30;;;;;;;;;;4971024;28;20187;-74
2023/06/04 07:33:02;;;;;;;3.43;3.10;;;;;;;;;;4973394;28;20185;-74
2023/06/04 07:35:27;;;;;;;3.87;3.23;;;;;;;;;;4969265;28;20299;-74
2023/06/04 07:37:53;;;;;;;5.77;3.63;;;;;;;;;;4970224;28;20194;-74
2023/06/04 07:40:18;;;;;;;3.73;3.27;;;;;;;;;;4974509;28;20192;-74
2023/06/04 07:42:45;;;;;;;3.40;3.10;;;;;;;;;;4992548;28;20185;-74
2023/06/04 07:45:10;;;;;;;4.20;3.30;;;;;;;;;;4963086;28;20182;-74
2023/06/04 07:47:35;;;;;;;5.63;3.07;;;;;;;;;;4977757;28;20330;-74
2023/06/04 07:50:01;;;;;;;4.90;3.40;;;;;;;;;;4977141;28;20183;-74
2023/06/04 07:52:26;;;;;;;5.73;4.27;;;;;;;;;;4977414;28;20188;-74
2023/06/04 07:54:51;;;;;;;4.40;3.47;;;;;;;;;;4981435;28;20249;-74
2023/06/04 07:57:16;;;;;;;3.90;3.50;;;;;;;;;;4980692;28;20208;-74
2023/06/04 07:59:42;;;;;;;3.97;3.57;;;;;;;;;;4986371;28;20292;-74
2023/06/04 08:02:07;;;;;;;4.10;3.70;;;;;;;;;;4990389;28;20270;-74
2023/06/04 08:04:33;;;;;;;6.90;3.73;;;;;;;;;;4970405;28;20238;-74
2023/06/04 08:06:58;;;;;;;3.70;3.23;;;;;;;;;;4978496;28;20192;-74
2023/06/04 08:09:24;;;;;;;5.10;3.00;;;;;;;;;;4975836;28;20210;-74
2023/06/04 08:11:49;;;;;;;3.50;2.97;;;;;;;;;;4979069;28;20201;-74
2023/06/04 08:14:14;;;;;;;3.70;3.40;;;;;;;;;;4975717;28;20200;-74
2023/06/04 08:16:40;;;;;;;3.23;2.93;;;;;;;;;;4975770;28;20191;-74
2023/06/04 08:19:07;;;;;;;3.80;3.40;;;;;;;;;;4973534;28;20177;-74
2023/06/04 08:21:33;;;;;;;5.30;3.40;;;;;;;;;;4981448;28;20178;-74
2023/06/04 08:23:58;;;;;;;7.10;4.00;;;;;;;;;;4974901;28;20190;-74
2023/06/04 08:26:24;;;;;;;5.57;3.80;;;;;;;;;;4973981;28;20178;-74
2023/06/04 08:28:50;;;;;;;5.93;3.87;;;;;;;;;;4981864;28;20185;-75
2023/06/04 08:31:16;;;;;;;7.50;3.70;;;;;;;;;;4969952;28;20174;-74
2023/06/04 08:33:41;;;;;;;3.90;3.60;;;;;;;;;;4968481;28;20195;-74
2023/06/04 08:36:07;;;;;;;3.40;3.10;;;;;;;;;;4967853;28;20202;-74
2023/06/04 08:38:32;;;;;;;8.33;3.57;;;;;;;;;;4971182;28;20277;-74
2023/06/04 08:41:00;;;;;;;4.33;3.20;;;;;;;;;;4991910;28;20200;-74
2023/06/04 08:43:26;;;;;;;3.93;3.40;;;;;;;;;;4988950;28;20171;-74
2023/06/04 08:45:57;;;;;;;6.47;4.00;;;;;;;;;;4987906;28;20259;-74
2023/06/04 08:48:24;;;;;;;3.10;2.90;;;;;;;;;;4972529;28;20183;-74
2023/06/04 08:50:49;;;;;;;5.60;3.33;;;;;;;;;;4981263;28;20192;-74
2023/06/04 08:53:15;;;;;;;7.63;3.17;;;;;;;;;;4968705;28;20190;-74
2023/06/04 08:55:41;;;;;;;3.50;3.20;;;;;;;;;;4979878;28;20210;-74
2023/06/04 08:58:08;;;;;;;3.33;3.03;;;;;;;;;;4980102;28;20252;-74
2023/06/04 09:00:33;;;;;;;5.60;2.83;;;;;;;;;;4982497;28;20206;-74
2023/06/04 09:03:01;;;;;;;4.27;3.27;;;;;;;;;;4972768;28;20195;-74
2023/06/04 09:05:26;;;;;;;4.65;3.15;;;;;;;;;;4975190;28;20184;-74
2023/06/04 09:07:52;;;;;;;3.20;2.90;;;;;;;;;;4981943;28;20195;-74
2023/06/04 09:10:18;;;;;;;4.90;3.27;;;;;;;;;;4989938;28;20332;-74
2023/06/04 09:12:45;;;;;;;3.77;3.40;;;;;;;;;;4971114;28;20198;-74
2023/06/04 09:15:11;;;;;;;3.77;3.23;;;;;;;;;;4970338;28;20214;-74
2023/06/04 09:17:36;;;;;;;3.60;2.90;;;;;;;;;;4982836;28;20271;-74
2023/06/04 09:20:01;;;;;;;4.40;3.20;;;;;;;;;;5004039;28;20176;-74
2023/06/04 09:22:33;;;;;;;3.43;3.17;;;;;;;;;;4974235;28;20176;-74
2023/06/04 09:24:58;;;;;;;3.70;2.87;;;;;;;;;;4980954;28;20184;-74
2023/06/04 09:27:25;;;;;;;5.90;3.00;;;;;;;;;;4974562;28;20173;-74
2023/06/04 09:29:58;;;;;;;3.37;3.07;;;;;;;;;;4986207;28;20180;-74
2023/06/04 09:32:23;;;;;;;8.57;3.72;;;;;;;;;;4987008;28;20200;-74
2023/06/04 09:34:48;;;;;;;5.90;3.17;;;;;;;;;;4973987;28;20204;-74
2023/06/04 09:37:15;;;;;;;5.00;3.53;;;;;;;;;;4976504;28;20283;-74
2023/06/04 09:39:40;;;;;;;8.57;3.30;;;;;;;;;;4990782;28;20173;-74
2023/06/04 09:42:06;;;;;;;3.50;3.00;;;;;;;;;;4983264;28;20180;-74
2023/06/04 09:44:31;;;;;;;3.70;2.92;;;;;;;;;;4985841;28;20189;-74
2023/06/04 09:46:57;;;;;;;4.70;3.05;;;;;;;;;;4988909;28;20177;-74
2023/06/04 09:49:22;;;;;;;7.37;3.07;;;;;;;;;;4964611;28;20193;-75
2023/06/04 09:51:50;;;;;;;4.13;3.25;;;;;;;;;;4964606;28;20216;-74
2023/06/04 09:54:16;;;;;;;4.53;3.60;;;;;;;;;;4973317;28;20196;-74
2023/06/04 09:56:41;;;;;;;4.18;3.50;;;;;;;;;;4975229;28;20264;-74
2023/06/04 09:59:08;;;;;;;4.47;3.97;;;;;;;;;;4982310;28;20199;-75
2023/06/04 10:01:33;;;;;;;6.53;3.45;;;;;;;;;;4961884;28;20177;-74
2023/06/04 10:04:03;;;;;;;8.53;3.97;;;;;;;;;;4969929;28;20230;-74
2023/06/04 10:06:30;;;;;;;7.63;4.28;;;;;;;;;;4973716;28;20184;-74
2023/06/04 10:08:57;;;;;;;4.55;3.22;;;;;;;;;;4977151;28;20186;-74
2023/06/04 10:11:26;;;;;;;4.38;3.42;;;;;;;;;;4969373;28;20176;-74
2023/06/04 10:14:00;;;;;;;5.40;3.42;;;;;;;;;;4967983;28;20192;-74
2023/06/04 10:16:25;;;;;;;4.82;3.50;;;;;;;;;;4970349;28;20169;-74
2023/06/04 10:18:52;;;;;;;7.15;3.30;;;;;;;;;;4971310;28;20196;-74
2023/06/04 10:21:18;;;;;;;5.15;3.55;;;;;;;;;;4969764;28;20185;-75
2023/06/04 10:23:44;;;;;;;4.85;2.90;;;;;;;;;;4970676;28;20195;-75
2023/06/04 10:26:12;;;;;;;3.97;3.45;;;;;;;;;;4968571;28;20191;-75
2023/06/04 10:28:40;;;;;;;3.97;3.67;;;;;;;;;;4971826;28;20234;-74
2023/06/04 10:31:05;;;;;;;4.13;3.40;;;;;;;;;;4968395;28;20195;-75
2023/06/04 10:33:31;;;;;;;4.50;3.20;;;;;;;;;;4971940;28;20184;-74
2023/06/04 10:35:56;;;;;;;3.63;3.15;;;;;;;;;;4971796;28;20208;-75
2023/06/04 10:38:22;;;;;;;4.72;3.33;;;;;;;;;;4976170;28;20207;-75
2023/06/04 10:40:47;;;;;;;4.28;3.55;;;;;;;;;;4976928;28;20181;-74
2023/06/04 10:43:14;;;;;;;4.05;3.60;;;;;;;;;;4975485;28;20175;-74
2023/06/04 10:45:40;;;;;;;3.75;3.45;;;;;;;;;;4967854;28;20189;-75
2023/06/04 10:48:06;;;;;;;4.85;3.95;;;;;;;;;;4981704;28;20296;-75
2023/06/04 10:50:33;;;;;;;4.03;3.65;;;;;;;;;;4970975;28;20231;-75
2023/06/04 10:52:59;;;;;;;6.90;3.30;;;;;;;;;;4974445;28;20187;-75
2023/06/04 10:55:24;;;;;;;6.85;3.80;;;;;;;;;;4971650;28;20205;-74
2023/06/04 10:58:00;;;;;;;8.32;3.83;;;;;;;;;;4968318;28;20296;-74
2023/06/04 11:00:38;;;;;;;4.50;3.33;;;;;;;;;;4966060;28;20177;-75
2023/06/04 11:03:04;;;;;;;7.47;4.15;;;;;;;;;;4968073;28;20231;-75
2023/06/04 11:05:34;;;;;;;5.90;3.55;;;;;;;;;;4963932;28;20221;-75
2023/06/04 11:08:00;;;;;;;3.50;3.20;;;;;;;;;;4982196;28;20227;-74
2023/06/04 11:10:32;;;;;;;3.67;3.35;;;;;;;;;;4974025;28;20260;-75
2023/06/04 11:12:57;;;;;;;4.55;3.95;;;;;;;;;;4977469;28;20186;-75
2023/06/04 11:15:22;;;;;;;3.90;3.50;;;;;;;;;;4967730;28;20276;-75
2023/06/04 11:17:54;;;;;;;4.30;3.78;;;;;;;;;;4968957;28;20177;-75
2023/06/04 11:20:21;;;;;;;5.03;4.25;;;;;;;;;;4965433;28;20181;-75
2023/06/04 11:22:53;;;;;;;4.43;4.00;;;;;;;;;;4970033;28;20263;-75
2023/06/04 11:25:18;;;;;;;4.10;3.70;;;;;;;;;;4981133;28;20223;-75
2023/06/04 11:27:43;;;;;;;6.13;3.95;;;;;;;;;;4970773;28;20196;-75
2023/06/04 11:30:09;;;;;;;6.68;4.00;;;;;;;;;;4979256;28;20181;-75
2023/06/04 11:32:34;;;;;;;7.63;4.95;;;;;;;;;;4971030;28;20193;-75
2023/06/04 11:35:05;;;;;;;4.50;4.10;;;;;;;;;;4973272;28;20204;-75
2023/06/04 11:37:32;;;;;;;6.63;4.05;;;;;;;;;;4971040;28;20219;-75
2023/06/04 11:39:57;;;;;;;7.32;3.80;;;;;;;;;;4967760;28;20239;-75
2023/06/04 11:42:22;;;;;;;3.58;3.28;;;;;;;;;;4973276;28;20445;-75
2023/06/04 11:44:48;;;;;;;4.82;3.50;;;;;;;;;;4972294;28;20218;-75
2023/06/04 11:47:14;;;;;;;7.18;4.10;;;;;;;;;;4987067;28;20253;-74
2023/06/04 11:49:39;;;;;;;4.32;3.67;;;;;;;;;;4966700;28;20189;-75
2023/06/04 11:52:05;;;;;;;3.72;3.38;;;;;;;;;;4978169;28;20331;-75
2023/06/04 11:54:36;;;;;;;4.28;3.72;;;;;;;;;;4971359;28;20205;-75
2023/06/04 11:57:04;;;;;;;4.00;3.42;;;;;;;;;;4976515;28;20288;-75
2023/06/04 11:59:29;;;;;;;5.28;3.97;;;;;;;;;;4974592;28;20184;-75
2023/06/04 12:01:55;;;;;;;6.05;3.45;;;;;;;;;;4972509;28;20184;-75
2023/06/04 12:04:21;;;;;;;5.10;3.53;;;;;;;;;;4973062;28;20246;-75
2023/06/04 12:06:57;;;;;;;6.05;3.45;;;;;;;;;;4971333;28;20215;-75
2023/06/04 12:09:36;;;;;;;4.78;3.60;;;;;;;;;;4968721;28;20196;-75
2023/06/04 12:12:02;;;;;;;4.85;3.75;;;;;;;;;;4972643;28;20294;-75
2023/06/04 12:14:28;;;;;;;3.72;3.42;;;;;;;;;;4976989;28;20208;-75
2023/06/04 12:16:56;;;;;;;4.10;3.47;;;;;;;;;;4971704;28;20185;-75
2023/06/04 12:19:21;;;;;;;4.30;3.53;;;;;;;;;;4975699;28;20173;-75
2023/06/04 12:21:46;;;;;;;4.68;3.47;;;;;;;;;;4976923;28;20184;-75
2023/06/04 12:24:13;;;;;;;4.05;3.60;;;;;;;;;;4969918;28;20184;-73
2023/06/04 12:26:40;;;;;;;6.40;3.63;;;;;;;;;;4967803;28;20319;-73
2023/06/04 12:29:13;;;;;;;4.90;3.50;;;;;;;;;;4971859;28;20207;-73
2023/06/04 12:31:42;;;;;;;5.28;3.70;;;;;;;;;;4970504;28;20238;-73
2023/06/04 12:34:07;;;;;;;3.75;3.45;;;;;;;;;;4986561;28;20193;-73
2023/06/04 12:36:36;;;;;;;3.70;3.25;;;;;;;;;;4984264;28;20185;-73
2023/06/04 12:39:02;;;;;;;4.80;3.80;;;;;;;;;;4969233;28;20181;-73
2023/06/04 12:41:28;;;;;;;4.35;3.50;;;;;;;;;;4983960;28;20222;-74
2023/06/04 12:43:53;;;;;;;3.58;3.28;;;;;;;;;;5008891;28;20207;-73
2023/06/04 12:46:19;;;;;;;14.57;4.10;;;;;;;;;;4971687;28;20173;-73
2023/06/04 12:48:44;;;;;;;5.00;3.40;;;;;;;;;;4971634;28;20264;-74
2023/06/04 12:51:12;;;;;;;6.60;3.65;;;;;;;;;;4972323;28;20188;-74
2023/06/04 12:53:41;;;;;;;3.83;3.30;;;;;;;;;;4974135;28;20176;-73
2023/06/04 12:56:06;;;;;;;4.68;3.50;;;;;;;;;;4984973;28;20204;-74
2023/06/04 12:58:31;;;;;;;4.35;3.85;;;;;;;;;;4969026;28;20201;-73
2023/06/04 13:00:57;;;;;;;4.28;3.80;;;;;;;;;;4975072;28;20181;-74
2023/06/04 13:03:22;;;;;;;5.97;4.05;;;;;;;;;;4975417;28;20224;-74
2023/06/04 13:05:48;;;;;;;11.32;4.05;;;;;;;;;;4968703;28;20189;-73
2023/06/04 13:08:13;;;;;;;3.75;3.33;;;;;;;;;;4985884;28;20230;-74
2023/06/04 13:10:38;;;;;;;4.35;3.85;;;;;;;;;;4974672;28;20235;-73
2023/06/04 13:13:03;;;;;;;3.80;3.42;;;;;;;;;;4983506;28;20183;-73
2023/06/04 13:15:29;;;;;;;3.47;3.17;;;;;;;;;;4985652;28;20219;-74
2023/06/04 13:17:54;;;;;;;4.82;3.55;;;;;;;;;;4968362;28;20180;-74
2023/06/04 13:20:19;;;;;;;4.40;3.28;;;;;;;;;;4983043;28;20259;-74
2023/06/04 13:22:45;;;;;;;3.97;3.58;;;;;;;;;;4971824;28;20189;-74
2023/06/04 13:25:10;;;;;;;4.03;3.50;;;;;;;;;;4971226;28;20177;-73
2023/06/04 13:27:35;;;;;;;6.05;3.20;;;;;;;;;;4968542;28;20208;-73
2023/06/04 13:30:00;;;;;;;4.47;4.07;;;;;;;;;;4976502;28;20189;-74
2023/06/04 13:32:26;;;;;;;4.78;3.72;;;;;;;;;;4972532;28;20515;-73
2023/06/04 13:34:51;;;;;;;3.75;3.45;;;;;;;;;;4970056;28;20239;-74
2023/06/04 13:37:16;;;;;;;5.45;3.75;;;;;;;;;;4989306;28;20211;-74
2023/06/04 13:39:41;;;;;;;5.03;3.60;;;;;;;;;;4974626;28;20181;-74
2023/06/04 13:42:06;;;;;;;3.88;3.53;;;;;;;;;;4970520;28;20189;-74
2023/06/04 13:44:32;;;;;;;4.93;3.67;;;;;;;;;;4974916;28;20277;-74
2023/06/04 13:46:58;;;;;;;3.50;3.20;;;;;;;;;;4970460;28;20232;-74
2023/06/04 13:49:24;;;;;;;5.38;3.63;;;;;;;;;;4971147;28;20185;-74
2023/06/04 13:51:50;;;;;;;3.40;3.10;;;;;;;;;;4973663;28;20408;-74
2023/06/04 13:54:15;;;;;;;5.22;3.92;;;;;;;;;;4986696;28;20212;-74
2023/06/04 13:56:40;;;;;;;8.77;3.63;;;;;;;;;;4968026;28;20243;-74
2023/06/04 13:59:06;;;;;;;5.22;3.42;;;;;;;;;;4973912;28;20169;-74
2023/06/04 14:01:31;;;;;;;4.57;3.80;;;;;;;;;;4972731;28;20230;-74
2023/06/04 14:03:58;;;;;;;4.47;3.83;;;;;;;;;;4972544;28;20224;-74
2023/06/04 14:06:23;;;;;;;7.78;3.80;;;;;;;;;;4972482;28;20177;-74
2023/06/04 14:08:48;;;;;;;6.28;3.83;;;;;;;;;;4974458;28;20189;-74
2023/06/04 14:11:14;;;;;;;5.00;3.67;;;;;;;;;;4983731;28;20173;-74
2023/06/04 14:13:41;;;;;;;4.45;4.03;;;;;;;;;;4969861;28;20184;-74
2023/06/04 14:16:06;;;;;;;4.78;3.72;;;;;;;;;;4980760;28;20208;-74
2023/06/04 14:18:31;;;;;;;4.72;4.00;;;;;;;;;;4969979;28;20237;-74
2023/06/04 14:20:56;;;;;;;7.72;3.95;;;;;;;;;;4996990;28;20243;-74
2023/06/04 14:23:21;;;;;;;4.03;3.50;;;;;;;;;;4967585;28;20323;-74
2023/06/04 14:25:47;;;;;;;4.32;3.90;;;;;;;;;;4979291;28;20193;-74
2023/06/04 14:28:12;;;;;;;4.28;3.33;;;;;;;;;;4976692;28;20181;-73
2023/06/04 14:30:37;;;;;;;3.58;3.28;;;;;;;;;;4980318;28;20181;-74
2023/06/04 14:33:03;;;;;;;3.73;3.43;;;;;;;;;;4983460;28;20177;-74
2023/06/04 14:35:28;;;;;;;10.95;3.90;;;;;;;;;;4975491;28;20458;-74